Terminal Aerodrome Forecast
Issued by NWS Cleveland, OH

Home | Current Version | Previous Version | Text Only | Print | Product List | Glossary Off
Versions: 1 2 3 4 5 6 7 8 9 10 11 12 13 14 15 16 17 18 19 20 21 22 23 24 25 26 27 28

751
FTUS41 KCLE 161125
TAFERI
TAF
KERI 161125Z 1612/1712 23012G18KT 1 1/2SM -SN BR BKN015 OVC035
      TEMPO 1612/1615 1/2SM SHSN VV008
     FM161500 25014KT 1SM -SHSN BR BKN010 OVC025
     FM162200 32006KT 3SM -SHSN BR OVC025
     FM170100 03005KT 5SM BR VCSH OVC025
     FM170600 12006KT 5SM BR BKN025=

USA.gov is the U.S. government's official web portal to all federal, state and local government web resources and services.